Time;durP1;ratioP1;P1;durP2;ratioP2;P2;SDS_P1;SDS_P2;PMS_P1;PMS_P2;Temp;Humidity;BMP_temperature;BMP_pressure;BME280_temperature;BME280_humidity;BME280_pressure;Samples;Min_cycle;Max_cycle;Signal;HPM_P1;HPM_P2
2024/01/17 00:00:16;;;;;;;15.48;9.75;;;-0.40;88.90;;;;;;5096021;28;20055;-69
2024/01/17 00:02:42;;;;;;;22.30;9.70;;;-0.50;89.90;;;;;;5095686;28;20061;-69
2024/01/17 00:05:10;;;;;;;18.42;9.90;;;-0.50;90.20;;;;;;5095964;28;20028;-70
2024/01/17 00:07:37;;;;;;;17.90;9.50;;;-0.50;90.10;;;;;;5094231;28;20028;-71
2024/01/17 00:10:03;;;;;;;19.13;10.43;;;-0.50;90.40;;;;;;5096004;28;20027;-70
2024/01/17 00:12:30;;;;;;;17.08;10.05;;;-0.60;90.50;;;;;;5095688;28;20032;-72
2024/01/17 00:14:55;;;;;;;17.85;9.65;;;-0.60;90.50;;;;;;5094875;28;20484;-69
2024/01/17 00:17:21;;;;;;;21.08;10.63;;;-0.60;90.60;;;;;;5095716;28;20031;-70
2024/01/17 00:19:47;;;;;;;17.30;10.10;;;-0.60;90.90;;;;;;5095628;28;20137;-69
2024/01/17 00:22:15;;;;;;;20.10;10.43;;;-0.60;91.50;;;;;;5095888;28;20020;-69
2024/01/17 00:24:40;;;;;;;20.13;10.35;;;-0.60;91.40;;;;;;5095437;28;20054;-69
2024/01/17 00:27:06;;;;;;;19.90;10.73;;;-0.60;91.70;;;;;;5095708;28;20056;-69
2024/01/17 00:29:32;;;;;;;17.65;10.10;;;-0.60;91.90;;;;;;5095331;28;20488;-70
2024/01/17 00:31:57;;;;;;;23.35;10.40;;;-0.60;91.90;;;;;;5102568;28;20020;-70
2024/01/17 00:34:23;;;;;;;21.67;10.40;;;-0.60;91.60;;;;;;5114856;28;20028;-70
2024/01/17 00:36:49;;;;;;;21.63;10.20;;;-0.60;91.70;;;;;;5115802;28;20024;-70
2024/01/17 00:39:16;;;;;;;24.60;11.77;;;-0.60;91.70;;;;;;5116225;28;20440;-70
2024/01/17 00:41:42;;;;;;;23.60;12.30;;;-0.60;91.90;;;;;;5115552;28;20028;-70
2024/01/17 00:44:08;;;;;;;18.63;12.98;;;-0.50;92.30;;;;;;5115910;28;20464;-69
2024/01/17 00:46:34;;;;;;;20.52;12.43;;;-0.60;92.40;;;;;;5115153;28;20023;-69
2024/01/17 00:48:59;;;;;;;22.05;12.75;;;-0.60;93.00;;;;;;5115340;28;20035;-69
2024/01/17 00:51:25;;;;;;;29.13;13.38;;;-0.60;93.40;;;;;;5114457;28;20027;-70
2024/01/17 00:53:54;;;;;;;26.00;13.77;;;-0.60;93.50;;;;;;5115079;28;20050;-69
2024/01/17 00:56:20;;;;;;;24.35;12.98;;;-0.70;93.70;;;;;;5115487;28;20031;-70
2024/01/17 00:58:45;;;;;;;25.27;15.68;;;-0.70;94.20;;;;;;5099772;28;20032;-68
2024/01/17 01:01:11;;;;;;;29.23;18.30;;;-0.60;94.70;;;;;;5094896;28;20468;-70
2024/01/17 01:03:36;;;;;;;31.08;18.38;;;-0.60;95.10;;;;;;5094390;28;20043;-69
2024/01/17 01:06:03;;;;;;;34.67;19.20;;;-0.60;95.60;;;;;;5094689;28;20067;-70
2024/01/17 01:08:29;;;;;;;39.13;20.23;;;-0.50;96.10;;;;;;5094516;28;20032;-71
2024/01/17 01:10:55;;;;;;;39.58;21.02;;;-0.50;96.40;;;;;;5094830;28;20464;-68
2024/01/17 01:13:20;;;;;;;36.05;20.25;;;-0.40;96.70;;;;;;5094524;28;20031;-69
2024/01/17 01:15:46;;;;;;;42.63;21.50;;;-0.50;96.80;;;;;;5093934;28;20081;-70
2024/01/17 01:18:11;;;;;;;47.97;21.13;;;-0.50;97.20;;;;;;5094649;28;20118;-69
2024/01/17 01:20:37;;;;;;;38.92;21.27;;;-0.60;97.10;;;;;;5094464;28;20024;-70
2024/01/17 01:23:03;;;;;;;39.50;21.20;;;-0.60;97.60;;;;;;5092858;28;20028;-70
2024/01/17 01:25:28;;;;;;;39.97;21.33;;;-0.60;98.10;;;;;;5094398;28;20027;-69
2024/01/17 01:27:54;;;;;;;47.58;23.08;;;-0.60;98.40;;;;;;5093953;28;20028;-69
2024/01/17 01:30:20;;;;;;;43.22;21.88;;;-0.70;98.80;;;;;;5094344;28;20025;-70
2024/01/17 01:32:45;;;;;;;46.38;22.67;;;-0.70;99.50;;;;;;5093673;28;20032;-70
2024/01/17 01:35:11;;;;;;;37.97;19.15;;;-0.80;99.60;;;;;;5094305;28;20115;-69
2024/01/17 01:37:37;;;;;;;33.78;20.02;;;-0.80;99.90;;;;;;5092613;28;20028;-69
2024/01/17 01:40:02;;;;;;;31.73;17.77;;;-0.90;99.90;;;;;;5094250;28;20028;-69
2024/01/17 01:42:28;;;;;;;32.42;18.30;;;-0.90;99.90;;;;;;5094257;28;20016;-69
2024/01/17 01:44:54;;;;;;;38.25;19.77;;;-1.00;99.80;;;;;;5092464;28;20023;-69
2024/01/17 01:47:21;;;;;;;48.67;20.30;;;-1.10;99.90;;;;;;5094028;28;20040;-69
2024/01/17 01:49:48;;;;;;;32.35;17.63;;;-1.10;99.90;;;;;;5093698;28;20384;-69
2024/01/17 01:52:14;;;;;;;32.00;18.95;;;-1.20;99.90;;;;;;5094166;28;20107;-71
2024/01/17 01:54:43;;;;;;;35.10;20.00;;;-1.30;99.90;;;;;;5093645;28;20357;-70
2024/01/17 01:57:09;;;;;;;30.80;17.35;;;-1.30;99.90;;;;;;5094265;28;20107;-69
2024/01/17 01:59:35;;;;;;;28.63;17.92;;;-1.30;99.90;;;;;;5092875;28;20487;-69
2024/01/17 02:02:04;;;;;;;28.88;17.65;;;-1.30;99.90;;;;;;5093778;28;20020;-69
2024/01/17 02:04:31;;;;;;;32.72;18.73;;;-1.40;99.90;;;;;;5093648;28;20020;-69
2024/01/17 02:07:00;;;;;;;37.78;19.30;;;-1.40;99.90;;;;;;5093295;28;20028;-69
2024/01/17 02:09:26;;;;;;;41.97;18.80;;;-1.50;99.90;;;;;;5093358;28;20108;-69
2024/01/17 02:11:52;;;;;;;32.03;18.88;;;-1.50;99.90;;;;;;5092608;28;20469;-70
2024/01/17 02:14:19;;;;;;;53.53;18.60;;;-1.60;99.90;;;;;;5093234;28;20029;-70
2024/01/17 02:16:46;;;;;;;52.47;18.35;;;-1.60;99.90;;;;;;5093070;28;20040;-69
2024/01/17 02:19:16;;;;;;;32.80;18.85;;;-1.50;99.90;;;;;;5093499;28;20023;-69
2024/01/17 02:21:41;;;;;;;31.55;18.67;;;-1.60;99.90;;;;;;5092594;28;20028;-69
2024/01/17 02:24:28;;;;;;;27.40;17.55;;;-1.60;99.90;;;;;;5093000;28;20103;-69
2024/01/17 02:26:54;;;;;;;34.70;20.33;;;-1.60;99.90;;;;;;5107132;28;20701;-69
2024/01/17 02:29:21;;;;;;;37.60;19.48;;;-1.60;99.90;;;;;;5113606;28;20049;-69
2024/01/17 02:31:48;;;;;;;31.38;18.98;;;-1.60;99.90;;;;;;5113206;28;20495;-69
2024/01/17 02:34:14;;;;;;;34.33;20.92;;;-1.60;99.90;;;;;;5113269;28;20039;-69
2024/01/17 02:36:39;;;;;;;36.97;18.33;;;-1.70;99.90;;;;;;5112761;28;20020;-70
2024/01/17 02:39:05;;;;;;;36.17;19.55;;;-1.60;99.90;;;;;;5113453;28;20414;-69
2024/01/17 02:41:31;;;;;;;36.08;19.10;;;-1.70;99.90;;;;;;5113193;28;20072;-68
2024/01/17 02:43:56;;;;;;;29.80;17.95;;;-1.70;99.90;;;;;;5113164;28;20027;-70
2024/01/17 02:46:26;;;;;;;34.80;19.77;;;-1.70;99.90;;;;;;5113184;28;20023;-69
2024/01/17 02:48:52;;;;;;;39.25;22.42;;;-1.60;99.90;;;;;;5112475;28;20148;-68
2024/01/17 02:51:17;;;;;;;37.38;21.17;;;-1.70;99.90;;;;;;5113171;28;20467;-68
2024/01/17 02:53:43;;;;;;;35.85;20.33;;;-1.70;99.90;;;;;;5113053;28;20027;-69
2024/01/17 02:56:08;;;;;;;36.90;20.55;;;-1.60;99.90;;;;;;5113419;28;20102;-69
2024/01/17 02:58:34;;;;;;;38.92;20.85;;;-1.60;99.90;;;;;;5112984;28;20110;-70
2024/01/17 03:01:00;;;;;;;38.97;20.67;;;-1.60;99.90;;;;;;5112243;28;20112;-70
2024/01/17 03:03:25;;;;;;;41.30;20.92;;;-1.70;99.90;;;;;;5113205;28;20031;-70
2024/01/17 03:05:51;;;;;;;49.72;21.92;;;-1.70;99.90;;;;;;5112725;28;20114;-69
2024/01/17 03:08:16;;;;;;;34.00;19.40;;;-1.70;99.90;;;;;;5097628;28;20471;-69
2024/01/17 03:10:42;;;;;;;37.58;20.17;;;-1.80;99.90;;;;;;5092055;28;20032;-70
2024/01/17 03:13:08;;;;;;;37.10;20.27;;;-1.80;99.90;;;;;;5092530;28;20020;-68
2024/01/17 03:15:34;;;;;;;39.05;20.25;;;-1.80;99.90;;;;;;5091138;28;20077;-69
2024/01/17 03:18:00;;;;;;;37.13;20.42;;;-1.90;99.90;;;;;;5091628;28;20183;-69
2024/01/17 03:20:26;;;;;;;34.30;18.88;;;-1.90;99.90;;;;;;5092455;28;20122;-69
2024/01/17 03:22:53;;;;;;;36.05;20.23;;;-1.90;99.90;;;;;;5091862;28;20103;-69
2024/01/17 03:25:19;;;;;;;39.95;21.33;;;-1.90;99.90;;;;;;5092208;28;20111;-69
2024/01/17 03:27:45;;;;;;;41.17;22.40;;;-1.90;99.90;;;;;;5092067;28;20118;-70
2024/01/17 03:30:11;;;;;;;49.33;22.20;;;-1.90;99.90;;;;;;5092101;28;20020;-69
2024/01/17 03:32:36;;;;;;;40.65;21.55;;;-1.90;99.90;;;;;;5092034;28;20020;-69
2024/01/17 03:35:02;;;;;;;47.50;23.63;;;-1.90;99.90;;;;;;5091786;28;20480;-69
2024/01/17 03:37:28;;;;;;;41.05;21.40;;;-1.90;99.90;;;;;;5091765;28;20024;-69
2024/01/17 03:39:53;;;;;;;40.42;22.52;;;-1.80;99.90;;;;;;5091671;28;20031;-69
2024/01/17 03:42:19;;;;;;;41.72;21.73;;;-1.80;99.90;;;;;;5092105;28;20024;-69
2024/01/17 03:44:45;;;;;;;41.08;21.63;;;-1.80;99.90;;;;;;5091555;28;20475;-69
2024/01/17 03:47:12;;;;;;;37.80;22.20;;;-1.70;99.90;;;;;;5092048;28;20356;-69
2024/01/17 03:49:38;;;;;;;37.97;22.02;;;-1.70;99.90;;;;;;5091867;28;20040;-70
2024/01/17 03:52:05;;;;;;;36.80;20.85;;;-1.70;99.90;;;;;;5091339;28;20396;-69
2024/01/17 03:54:31;;;;;;;37.10;20.73;;;-1.70;99.90;;;;;;5091897;28;20349;-69
2024/01/17 03:56:56;;;;;;;38.50;21.05;;;-1.70;99.90;;;;;;5090217;28;20077;-70
2024/01/17 03:59:22;;;;;;;32.10;18.80;;;-1.70;99.90;;;;;;5091786;28;20093;-70
2024/01/17 04:01:47;;;;;;;30.05;18.45;;;-1.70;99.90;;;;;;5091448;28;20463;-68
2024/01/17 04:04:13;;;;;;;29.17;17.38;;;-1.70;99.90;;;;;;5092066;28;20405;-70
2024/01/17 04:06:40;;;;;;;28.60;16.02;;;-1.70;99.90;;;;;;5091627;28;20028;-70
2024/01/17 04:09:06;;;;;;;35.15;17.88;;;-1.70;99.90;;;;;;5091469;28;20028;-69
2024/01/17 04:11:32;;;;;;;30.58;17.67;;;-1.70;99.90;;;;;;5091838;28;20032;-68
2024/01/17 04:13:57;;;;;;;34.50;19.60;;;-1.70;99.90;;;;;;5091784;28;20059;-69
2024/01/17 04:16:23;;;;;;;33.75;18.95;;;-1.80;99.90;;;;;;5091735;28;20107;-69
2024/01/17 04:18:48;;;;;;;33.58;18.13;;;-1.80;99.90;;;;;;5091573;28;20038;-69
2024/01/17 04:21:18;;;;;;;31.23;17.88;;;-1.80;99.90;;;;;;5091695;28;20024;-69
2024/01/17 04:23:44;;;;;;;33.63;18.27;;;-1.80;99.90;;;;;;5091702;28;20055;-70
2024/01/17 04:26:23;;;;;;;31.63;19.50;;;-1.90;99.90;;;;;;5092479;28;20054;-68
2024/01/17 04:28:52;;;;;;;33.22;17.00;;;-1.90;99.90;;;;;;5071003;28;20127;-70
2024/01/17 04:31:28;;;;;;;32.33;18.90;;;-1.90;99.90;;;;;;5071370;28;20029;-69
2024/01/17 04:33:55;;;;;;;36.13;18.17;;;-1.90;99.90;;;;;;5071044;28;20346;-69
2024/01/17 04:36:21;;;;;;;38.95;19.67;;;-1.90;99.90;;;;;;5073287;28;20112;-69
2024/01/17 04:38:47;;;;;;;38.83;20.20;;;-1.90;99.90;;;;;;5074460;28;20028;-70
2024/01/17 04:41:15;;;;;;;34.10;18.63;;;-1.90;99.90;;;;;;5075050;28;20100;-68
2024/01/17 04:43:41;;;;;;;41.13;20.58;;;-1.90;99.90;;;;;;5074880;28;20021;-69
2024/01/17 04:46:14;;;;;;;34.15;19.83;;;-1.90;99.90;;;;;;5074460;28;20035;-69
2024/01/17 04:48:41;;;;;;;35.80;19.65;;;-1.90;99.90;;;;;;5074945;28;20185;-69
2024/01/17 04:51:08;;;;;;;39.45;18.98;;;-1.80;99.90;;;;;;5074147;28;20040;-69
2024/01/17 04:53:34;;;;;;;34.05;19.77;;;-1.80;99.90;;;;;;5074724;28;20043;-69
2024/01/17 04:56:01;;;;;;;33.58;19.55;;;-1.80;99.90;;;;;;5074271;28;20025;-69
2024/01/17 04:58:27;;;;;;;32.70;19.70;;;-1.80;99.90;;;;;;5074729;28;20032;-69
2024/01/17 05:00:53;;;;;;;37.15;20.58;;;-1.80;99.90;;;;;;5072727;28;20400;-69
2024/01/17 05:03:19;;;;;;;35.38;19.77;;;-1.80;99.90;;;;;;5074891;28;20020;-69
2024/01/17 05:05:45;;;;;;;35.42;20.33;;;-1.80;99.90;;;;;;5080862;28;20020;-69
2024/01/17 05:08:12;;;;;;;36.17;20.38;;;-1.70;99.90;;;;;;5094283;28;20040;-69
2024/01/17 05:10:42;;;;;;;37.05;20.33;;;-1.70;99.90;;;;;;5094824;28;20060;-69
2024/01/17 05:13:07;;;;;;;32.78;19.27;;;-1.70;99.90;;;;;;5094890;28;20020;-69
2024/01/17 05:15:33;;;;;;;30.73;18.63;;;-1.70;99.90;;;;;;5094956;28;20074;-69
2024/01/17 05:17:59;;;;;;;33.00;18.92;;;-1.70;99.90;;;;;;5094251;28;20388;-70
2024/01/17 05:20:24;;;;;;;41.85;21.80;;;-1.70;99.90;;;;;;5094344;28;20028;-69
2024/01/17 05:22:50;;;;;;;33.83;19.00;;;-1.60;99.90;;;;;;5094061;28;20024;-70
2024/01/17 05:25:15;;;;;;;32.60;18.85;;;-1.70;99.90;;;;;;5092369;28;20020;-70
2024/01/17 05:27:41;;;;;;;35.72;19.77;;;-1.70;99.90;;;;;;5093608;28;20028;-70
2024/01/17 05:30:10;;;;;;;35.28;19.25;;;-1.70;99.90;;;;;;5093355;28;20141;-72
2024/01/17 05:32:37;;;;;;;33.97;20.02;;;-1.70;99.90;;;;;;5089910;28;20058;-70
2024/01/17 05:35:04;;;;;;;39.33;21.75;;;-1.70;99.90;;;;;;5093377;28;20035;-69
2024/01/17 05:37:30;;;;;;;36.97;20.25;;;-1.80;99.90;;;;;;5094101;28;20046;-69
2024/01/17 05:39:55;;;;;;;33.47;20.38;;;-1.80;99.90;;;;;;5092192;28;20362;-71
2024/01/17 05:42:21;;;;;;;34.55;19.65;;;-1.70;99.90;;;;;;5093953;28;20035;-69
2024/01/17 05:44:46;;;;;;;35.75;20.02;;;-1.70;99.90;;;;;;5093469;28;20024;-69
2024/01/17 05:47:13;;;;;;;32.55;19.27;;;-1.70;99.90;;;;;;5090886;28;20115;-69
2024/01/17 05:49:38;;;;;;;36.63;19.70;;;-1.70;99.90;;;;;;5091541;28;20127;-70
2024/01/17 05:52:04;;;;;;;33.78;18.15;;;-1.70;99.90;;;;;;5092633;28;20350;-69
2024/01/17 05:54:30;;;;;;;33.88;19.67;;;-1.70;99.90;;;;;;5093656;28;20024;-69
2024/01/17 05:56:55;;;;;;;37.55;20.45;;;-1.70;99.90;;;;;;5091817;28;20085;-69
2024/01/17 05:59:21;;;;;;;36.15;20.20;;;-1.70;99.90;;;;;;5091840;28;20078;-70
2024/01/17 06:01:47;;;;;;;36.42;19.10;;;-1.70;99.90;;;;;;5092662;28;20024;-70
2024/01/17 06:04:13;;;;;;;38.28;20.15;;;-1.70;99.90;;;;;;5092423;28;20020;-70
2024/01/17 06:06:38;;;;;;;37.95;20.00;;;-1.70;99.90;;;;;;5092759;28;20031;-70
2024/01/17 06:09:07;;;;;;;38.63;19.35;;;-1.70;99.90;;;;;;5092449;28;20028;-69
2024/01/17 06:11:32;;;;;;;36.15;20.75;;;-1.70;99.90;;;;;;5092773;28;20024;-70
2024/01/17 06:13:59;;;;;;;39.10;19.80;;;-1.70;99.90;;;;;;5092116;28;20028;-70
2024/01/17 06:16:26;;;;;;;40.25;19.75;;;-1.60;99.90;;;;;;5092385;28;20044;-69
2024/01/17 06:18:52;;;;;;;37.17;20.00;;;-1.60;99.90;;;;;;5092321;28;20032;-69
2024/01/17 06:21:17;;;;;;;39.60;19.83;;;-1.60;99.90;;;;;;5090144;28;20036;-74
2024/01/17 06:23:44;;;;;;;33.70;18.67;;;-1.60;99.90;;;;;;5093764;28;20113;-69
2024/01/17 06:26:09;;;;;;;37.60;19.95;;;-1.60;99.90;;;;;;5092710;28;20486;-70
2024/01/17 06:28:35;;;;;;;35.17;19.10;;;-1.50;99.90;;;;;;5092234;28;20032;-70
2024/01/17 06:31:03;;;;;;;36.60;19.70;;;-1.50;99.90;;;;;;5092842;28;20227;-70
2024/01/17 06:33:29;;;;;;;39.40;21.23;;;-1.50;99.90;;;;;;5092267;28;20040;-72
2024/01/17 06:35:56;;;;;;;34.88;18.83;;;-1.50;99.90;;;;;;5091241;28;20038;-69
2024/01/17 06:38:22;;;;;;;39.33;19.73;;;-1.50;99.90;;;;;;5093117;28;20445;-69
2024/01/17 06:40:47;;;;;;;38.15;20.25;;;-1.50;99.90;;;;;;5092833;28;20024;-70
2024/01/17 06:43:13;;;;;;;40.20;19.00;;;-1.50;99.90;;;;;;5092050;28;20035;-70
2024/01/17 06:45:39;;;;;;;36.80;19.73;;;-1.50;99.90;;;;;;5092752;28;20080;-71
2024/01/17 06:48:04;;;;;;;42.90;21.20;;;-1.50;99.90;;;;;;5092158;28;20059;-70
2024/01/17 06:50:30;;;;;;;35.13;18.77;;;-1.60;99.90;;;;;;5092768;28;20457;-70
2024/01/17 06:52:56;;;;;;;38.85;20.83;;;-1.50;99.90;;;;;;5092407;28;20020;-74
2024/01/17 06:55:21;;;;;;;36.72;19.83;;;-1.50;99.90;;;;;;5092399;28;20039;-70
2024/01/17 06:57:47;;;;;;;36.75;19.42;;;-1.50;99.90;;;;;;5092313;28;20465;-70
2024/01/17 07:00:15;;;;;;;40.00;19.58;;;-1.40;99.90;;;;;;5091359;28;20076;-70
2024/01/17 07:02:41;;;;;;;39.08;19.50;;;-1.50;99.90;;;;;;5092545;28;20034;-71
2024/01/17 07:05:07;;;;;;;36.45;18.70;;;-1.50;99.90;;;;;;5092141;28;20119;-70
2024/01/17 07:07:32;;;;;;;42.95;20.92;;;-1.50;99.90;;;;;;5092430;28;20449;-70
2024/01/17 07:09:58;;;;;;;39.97;19.08;;;-1.50;99.90;;;;;;5091699;28;20130;-72
2024/01/17 07:12:24;;;;;;;40.35;20.33;;;-1.40;99.90;;;;;;5092375;28;20016;-69
2024/01/17 07:14:49;;;;;;;41.92;19.45;;;-1.40;99.90;;;;;;5092431;28;20108;-70
2024/01/17 07:17:15;;;;;;;41.00;20.42;;;-1.40;99.90;;;;;;5091894;28;20027;-71
2024/01/17 07:19:41;;;;;;;40.95;21.15;;;-1.40;99.90;;;;;;5092162;28;20116;-70
2024/01/17 07:22:09;;;;;;;39.30;21.42;;;-1.30;99.90;;;;;;5091480;28;20085;-70
2024/01/17 07:24:35;;;;;;;38.75;20.98;;;-1.30;99.90;;;;;;5091986;28;20475;-70
2024/01/17 07:27:00;;;;;;;45.05;21.65;;;-1.20;99.90;;;;;;5091943;28;20036;-71
2024/01/17 07:29:26;;;;;;;39.05;22.33;;;-1.20;99.90;;;;;;5092089;28;20423;-70
2024/01/17 07:31:52;;;;;;;46.90;22.42;;;-1.20;99.90;;;;;;5091667;28;20030;-70
2024/01/17 07:34:18;;;;;;;42.45;21.58;;;-1.20;99.90;;;;;;5091756;28;20059;-70
2024/01/17 07:36:44;;;;;;;43.28;21.83;;;-1.20;99.90;;;;;;5091877;28;20048;-69
2024/01/17 07:39:14;;;;;;;41.28;22.00;;;-1.20;99.90;;;;;;5091591;28;20028;-69
2024/01/17 07:41:40;;;;;;;42.85;21.08;;;-1.10;99.90;;;;;;5092174;28;20020;-69
2024/01/17 07:44:06;;;;;;;45.70;22.45;;;-1.10;99.90;;;;;;5090382;28;20075;-70
2024/01/17 07:46:32;;;;;;;45.00;21.33;;;-1.10;99.90;;;;;;5092028;28;20182;-70
2024/01/17 07:48:58;;;;;;;41.92;21.23;;;-1.10;99.90;;;;;;5091812;28;20050;-69
2024/01/17 07:51:24;;;;;;;45.25;21.25;;;-1.10;99.90;;;;;;5091516;28;20469;-70
2024/01/17 07:53:49;;;;;;;46.00;22.70;;;-1.10;99.90;;;;;;5091887;28;20035;-69
2024/01/17 07:56:15;;;;;;;43.40;20.50;;;-1.10;99.90;;;;;;5091346;28;20046;-70
2024/01/17 07:58:41;;;;;;;44.60;21.98;;;-1.10;99.90;;;;;;5091644;28;20036;-69
2024/01/17 08:01:06;;;;;;;39.58;21.30;;;-1.10;99.90;;;;;;5090987;28;20401;-70
2024/01/17 08:03:32;;;;;;;41.40;20.98;;;-1.10;99.90;;;;;;5091909;28;20044;-69
2024/01/17 08:05:58;;;;;;;43.20;20.38;;;-1.10;99.90;;;;;;5091796;28;20035;-70
2024/01/17 08:08:23;;;;;;;43.88;21.30;;;-1.10;99.90;;;;;;5091346;28;20028;-70
2024/01/17 08:10:49;;;;;;;42.63;21.48;;;-1.00;99.90;;;;;;5092844;28;20521;-70
2024/01/17 08:13:15;;;;;;;41.80;20.88;;;-1.00;99.90;;;;;;5095369;28;20028;-69
2024/01/17 08:15:41;;;;;;;41.45;20.92;;;-1.00;99.90;;;;;;5095665;28;20104;-69
2024/01/17 08:18:08;;;;;;;40.72;20.15;;;-1.00;99.90;;;;;;5095475;28;20473;-70
2024/01/17 08:20:34;;;;;;;45.63;21.80;;;-1.00;99.90;;;;;;5095697;28;20027;-70
2024/01/17 08:23:00;;;;;;;41.47;19.52;;;-1.00;99.90;;;;;;5098737;28;20016;-69
2024/01/17 08:25:26;;;;;;;44.47;21.77;;;-1.00;99.90;;;;;;5115853;28;20024;-68
2024/01/17 08:27:54;;;;;;;46.63;22.17;;;-0.90;99.90;;;;;;5115609;28;20028;-70
2024/01/17 08:30:19;;;;;;;42.95;20.98;;;-0.90;99.90;;;;;;5114364;28;20028;-70
2024/01/17 08:32:45;;;;;;;46.22;20.67;;;-0.90;99.90;;;;;;5115784;28;20016;-70
2024/01/17 08:35:14;;;;;;;38.17;20.83;;;-0.90;99.90;;;;;;5115465;28;20023;-70
2024/01/17 08:37:40;;;;;;;43.85;20.85;;;-0.80;99.90;;;;;;5115871;28;20445;-70
2024/01/17 08:40:07;;;;;;;43.17;21.35;;;-0.80;99.90;;;;;;5115631;28;20027;-70
2024/01/17 08:42:32;;;;;;;44.00;21.55;;;-0.80;99.90;;;;;;5115620;28;20055;-70
2024/01/17 08:44:58;;;;;;;43.50;21.38;;;-0.80;99.90;;;;;;5115661;28;20047;-69
2024/01/17 08:47:23;;;;;;;44.05;20.90;;;-0.80;99.90;;;;;;5115136;28;20031;-70
2024/01/17 08:49:51;;;;;;;43.13;21.80;;;-0.80;99.90;;;;;;5115420;28;20062;-69
2024/01/17 08:52:16;;;;;;;42.15;20.88;;;-0.80;99.90;;;;;;5115058;28;20027;-70
2024/01/17 08:54:42;;;;;;;43.53;21.30;;;-0.80;99.90;;;;;;5115346;28;20024;-70
2024/01/17 08:57:07;;;;;;;43.92;20.10;;;-0.80;99.90;;;;;;5114934;28;20168;-71
2024/01/17 08:59:34;;;;;;;45.25;21.13;;;-0.80;99.90;;;;;;5115198;28;20051;-69
2024/01/17 09:02:00;;;;;;;43.40;20.45;;;-0.80;99.90;;;;;;5115385;28;20110;-70
2024/01/17 09:04:25;;;;;;;43.50;20.45;;;-0.80;99.90;;;;;;5114846;28;20100;-70
2024/01/17 09:06:51;;;;;;;43.67;21.05;;;-0.80;99.90;;;;;;5115123;28;20119;-69
2024/01/17 09:09:17;;;;;;;46.20;21.48;;;-0.80;99.90;;;;;;5102226;28;20432;-69
2024/01/17 09:11:42;;;;;;;45.22;21.60;;;-0.70;99.90;;;;;;5094639;28;20055;-70
2024/01/17 09:14:10;;;;;;;40.90;21.50;;;-0.70;99.90;;;;;;5093892;28;20059;-70
2024/01/17 09:16:36;;;;;;;42.97;21.05;;;-0.80;99.90;;;;;;5094629;28;20020;-70
2024/01/17 09:19:01;;;;;;;43.22;22.45;;;-0.80;99.90;;;;;;5093177;28;20036;-69
2024/01/17 09:21:28;;;;;;;49.70;23.30;;;-0.80;99.90;;;;;;5093950;28;20067;-70
2024/01/17 09:23:54;;;;;;;45.30;22.58;;;-0.80;99.90;;;;;;5094438;28;20037;-70
2024/01/17 09:26:19;;;;;;;41.58;21.13;;;-0.80;99.90;;;;;;5093778;28;20031;-69
2024/01/17 09:28:45;;;;;;;41.85;21.45;;;-0.80;99.90;;;;;;5094282;28;20051;-69
2024/01/17 09:31:11;;;;;;;43.97;21.08;;;-0.80;99.90;;;;;;5093697;28;20469;-70
2024/01/17 09:33:37;;;;;;;42.40;20.52;;;-0.70;99.90;;;;;;5093129;28;20055;-71
2024/01/17 09:36:04;;;;;;;45.78;21.25;;;-0.70;99.90;;;;;;5094348;28;20090;-70
2024/01/17 09:38:29;;;;;;;45.05;20.98;;;-0.70;99.90;;;;;;5093601;28;20028;-69
2024/01/17 09:40:55;;;;;;;43.75;20.92;;;-0.70;99.90;;;;;;5093830;28;20042;-69
2024/01/17 09:43:22;;;;;;;38.83;21.05;;;-0.60;99.90;;;;;;5093525;28;20035;-69
2024/01/17 09:45:48;;;;;;;43.90;21.75;;;-0.60;99.90;;;;;;5093792;28;20099;-69
2024/01/17 09:48:16;;;;;;;43.40;21.00;;;-0.50;99.90;;;;;;5092195;28;20031;-70
2024/01/17 09:50:42;;;;;;;46.65;23.27;;;-0.50;99.90;;;;;;5093845;28;20468;-70
2024/01/17 09:53:13;;;;;;;46.97;21.50;;;-0.50;99.90;;;;;;5093500;28;20036;-75
2024/01/17 09:55:41;;;;;;;;;;;-0.50;99.90;;;;;;5093250;28;20065;-70
2024/01/17 09:58:08;;;;;;;45.80;22.98;;;-0.50;99.90;;;;;;5093790;28;19904;-70
2024/01/17 10:00:34;;;;;;;44.38;21.52;;;-0.40;99.90;;;;;;5093680;28;20044;-70
2024/01/17 10:03:02;;;;;;;43.55;21.88;;;-0.40;99.90;;;;;;5093597;28;20047;-70
2024/01/17 10:05:30;;;;;;;44.13;22.27;;;-0.50;99.90;;;;;;5092964;28;20056;-69
2024/01/17 10:08:00;;;;;;;44.97;22.40;;;-0.40;99.90;;;;;;5093557;28;20390;-69
2024/01/17 10:10:27;;;;;;;50.78;23.23;;;-0.40;99.90;;;;;;5092687;28;20425;-70
2024/01/17 10:12:54;;;;;;;46.20;22.60;;;-0.40;99.90;;;;;;5093543;28;20036;-69
2024/01/17 10:15:22;;;;;;;47.17;23.25;;;-0.40;99.90;;;;;;5091937;28;20244;-70
2024/01/17 10:17:48;;;;;;;43.90;23.30;;;-0.40;99.90;;;;;;5112964;28;20110;-71
2024/01/17 10:20:14;;;;;;;44.92;22.30;;;-0.40;99.90;;;;;;5113000;28;20067;-71
2024/01/17 10:22:41;;;;;;;52.53;23.83;;;-0.40;99.90;;;;;;5113828;28;20093;-69
2024/01/17 10:25:08;;;;;;;44.22;22.27;;;-0.40;99.90;;;;;;5113498;28;20031;-70
2024/01/17 10:27:34;;;;;;;51.20;24.00;;;-0.30;99.90;;;;;;5113181;28;20110;-70
2024/01/17 10:30:00;;;;;;;50.83;23.65;;;-0.30;99.90;;;;;;5113271;28;20074;-70
2024/01/17 10:32:27;;;;;;;46.67;22.75;;;-0.30;99.90;;;;;;5112894;28;20059;-70
2024/01/17 10:34:54;;;;;;;50.30;23.38;;;-0.30;99.90;;;;;;5112705;28;20098;-69
2024/01/17 10:37:20;;;;;;;50.03;23.98;;;-0.20;99.90;;;;;;5112921;28;20458;-69
2024/01/17 10:39:45;;;;;;;53.13;23.55;;;-0.20;99.90;;;;;;5113216;28;20032;-71
2024/01/17 10:42:20;;;;;;;57.42;25.30;;;-0.20;99.90;;;;;;5112985;28;20027;-75
2024/01/17 10:44:45;;;;;;;52.85;24.30;;;-0.20;99.90;;;;;;5113045;28;20302;-70
2024/01/17 10:47:11;;;;;;;51.53;25.35;;;-0.20;99.90;;;;;;5113122;28;20039;-69
2024/01/17 10:49:37;;;;;;;50.97;23.92;;;-0.10;99.90;;;;;;5113196;28;20032;-70
2024/01/17 10:52:09;;;;;;;53.30;24.92;;;-0.10;99.90;;;;;;5111765;28;20031;-70
2024/01/17 10:54:46;;;;;;;56.08;23.95;;;-0.10;99.90;;;;;;5112731;28;20027;-71
2024/01/17 10:57:14;;;;;;;54.58;24.08;;;-0.10;99.90;;;;;;5112861;28;20032;-75
2024/01/17 10:59:49;;;;;;;57.92;26.63;;;-0.10;99.90;;;;;;5112913;28;20177;-70
2024/01/17 11:02:22;;;;;;;62.10;26.00;;;0.00;99.90;;;;;;5110843;28;20024;-71
2024/01/17 11:05:11;;;;;;;55.63;24.83;;;0.00;99.90;;;;;;5097391;28;20026;-71
2024/01/17 11:07:37;;;;;;;53.42;25.05;;;0.00;99.90;;;;;;5091928;28;20024;-70
2024/01/17 11:10:04;;;;;;;54.67;24.75;;;0.00;99.90;;;;;;5092113;28;20119;-70
2024/01/17 11:12:36;;;;;;;59.22;24.33;;;0.00;99.90;;;;;;5091514;28;20465;-70
2024/01/17 11:15:06;;;;;;;57.17;25.67;;;0.00;99.90;;;;;;5092251;28;20023;-70
2024/01/17 11:17:36;;;;;;;60.85;26.50;;;0.00;99.90;;;;;;5091882;28;20040;-71
2024/01/17 11:20:08;;;;;;;59.70;26.08;;;0.00;99.90;;;;;;5092161;28;20028;-70
2024/01/17 11:22:36;;;;;;;54.65;24.85;;;0.10;99.90;;;;;;5091818;28;20032;-71
2024/01/17 11:25:10;;;;;;;59.92;26.70;;;0.10;99.90;;;;;;5092204;28;20063;-70
2024/01/17 11:28:09;;;;;;;56.30;25.85;;;0.20;99.90;;;;;;5091204;28;20027;-71
2024/01/17 11:30:46;;;;;;;65.97;26.65;;;0.20;99.90;;;;;;5086044;28;20059;-71
2024/01/17 11:33:15;;;;;;;55.97;25.10;;;0.20;99.90;;;;;;5090800;28;20048;-70
2024/01/17 11:35:51;;;;;;;60.40;26.80;;;0.20;99.90;;;;;;5091920;28;20077;-70
2024/01/17 11:38:23;;;;;;;57.60;25.52;;;0.20;99.90;;;;;;5091191;28;20099;-71
2024/01/17 11:40:55;;;;;;;46.33;23.20;;;0.30;99.90;;;;;;5091994;28;20028;-71
2024/01/17 11:43:21;;;;;;;56.60;25.85;;;0.30;99.90;;;;;;5089843;28;20028;-71
2024/01/17 11:45:50;;;;;;;50.72;24.90;;;0.30;99.90;;;;;;5091127;28;20027;-68
2024/01/17 11:48:23;;;;;;;51.45;24.77;;;0.30;99.90;;;;;;5092306;28;20038;-70
2024/01/17 11:51:01;;;;;;;50.50;24.05;;;0.30;99.90;;;;;;5091477;28;20067;-70
2024/01/17 11:53:28;;;;;;;55.47;25.92;;;0.30;99.90;;;;;;5090120;28;20024;-71
2024/01/17 11:55:56;;;;;;;56.80;25.90;;;0.30;99.90;;;;;;5091699;28;20077;-70
2024/01/17 11:58:36;;;;;;;53.67;25.13;;;0.40;99.90;;;;;;5091280;28;20090;-70
2024/01/17 12:01:03;;;;;;;53.92;24.75;;;0.40;99.90;;;;;;5091778;28;20050;-70
2024/01/17 12:03:30;;;;;;;49.47;24.15;;;0.40;99.90;;;;;;5091006;28;20472;-70
2024/01/17 12:05:56;;;;;;;56.33;24.75;;;0.40;99.90;;;;;;5091535;28;20190;-70
2024/01/17 12:08:22;;;;;;;50.63;24.13;;;0.50;99.90;;;;;;5101393;28;20118;-70
2024/01/17 12:10:55;;;;;;;50.63;24.10;;;0.50;99.90;;;;;;5111637;28;20433;-72
2024/01/17 12:13:23;;;;;;;51.45;25.60;;;0.50;99.90;;;;;;5111597;28;20062;-71
2024/01/17 12:15:52;;;;;;;50.25;24.08;;;0.50;99.90;;;;;;5110568;28;20479;-70
2024/01/17 12:18:20;;;;;;;46.38;23.38;;;0.50;99.90;;;;;;5111584;28;20440;-70
2024/01/17 12:20:49;;;;;;;47.28;23.17;;;0.50;99.90;;;;;;5111656;28;20484;-70
2024/01/17 12:23:17;;;;;;;48.72;23.65;;;0.60;99.90;;;;;;5110630;28;20384;-69
2024/01/17 12:25:43;;;;;;;46.17;23.48;;;0.60;99.90;;;;;;5111459;28;20456;-70